Terminal Aerodrome Forecast
Issued by NWS Grand Rapids, MI

Home | Current Version | Previous Version | Text Only | Print | Product List | Glossary On
Versions: 1 2 3 4 5 6 7 8 9 10 11 12 13 14 15 16 17 18 19 20 21
000
FTUS43 KGRR 200500
TAFGRR
TAF
KGRR 200540Z 2006/2106 18010KT P6SM SKC
     FM201100 20014G21KT P6SM BKN150
     FM201600 20011G19KT P6SM VCTS BKN050CB PROB30 2016/2020 5SM
      -TSRA BKN015CB
     FM210000 20010KT P6SM FEW150=

USA.gov is the U.S. government's official web portal to all federal, state and local government web resources and services.